Main page
Satellite images Climate Cyclones Lightning AirportsFAQ Languages Contact Newsletter About
Weather : Europe Africa North America South America Asia Australia-Oceania Others

hat-yai-th, Hat Yai, Hat Yai International Airport

48568

latitude: , longitude: Thailand, elevation: 06-55N m


METAR: VTSS 211530Z 00000KT 9999 FEW020 BKN100 25/24 Q1012 NOSIG